createdAt,value
2022-12-19T00:01:53.511Z,81.82
2022-12-19T00:04:21.280Z,82.27
2022-12-19T00:06:48.840Z,82.73
2022-12-19T00:09:16.460Z,82.92
2022-12-19T00:11:44.058Z,82.10
2022-12-19T00:14:12.248Z,81.64
2022-12-19T00:16:40.017Z,81.50
2022-12-19T00:19:09.673Z,81.27
2022-12-19T00:21:38.124Z,81.34
2022-12-19T00:24:18.420Z,81.32
2022-12-19T00:26:49.870Z,81.30
2022-12-19T00:29:17.579Z,81.04
2022-12-19T00:31:45.530Z,80.81
2022-12-19T00:34:13.219Z,81.13
2022-12-19T00:36:41.289Z,81.51
2022-12-19T00:39:09.354Z,81.57
2022-12-19T00:41:40.066Z,81.37
2022-12-19T00:44:14.342Z,81.80
2022-12-19T00:46:42.710Z,81.81
2022-12-19T00:49:12.851Z,82.09
2022-12-19T00:51:40.728Z,82.10
2022-12-19T00:54:10.211Z,81.86
2022-12-19T00:56:38.506Z,81.69
2022-12-19T00:59:07.076Z,82.22
2022-12-19T01:01:37.657Z,82.33
2022-12-19T01:06:57.906Z,82.55
2022-12-19T01:09:30.942Z,83.29
2022-12-19T01:11:58.871Z,83.34
2022-12-19T01:14:26.803Z,82.44
2022-12-19T01:16:54.534Z,82.73
2022-12-19T01:19:22.563Z,82.88
2022-12-19T01:21:50.422Z,82.34
2022-12-19T01:24:19.100Z,81.91
2022-12-19T01:26:47.371Z,81.76
2022-12-19T01:29:15.423Z,81.43
2022-12-19T01:31:43.458Z,80.80
2022-12-19T01:34:11.320Z,80.62
2022-12-19T01:36:40.073Z,81.12
2022-12-19T01:39:08.373Z,81.04
2022-12-19T01:41:37.574Z,80.65
2022-12-19T01:44:08.209Z,80.23
2022-12-19T01:46:37.655Z,80.14
2022-12-19T01:49:10.008Z,80.35
2022-12-19T01:51:43.433Z,80.38
2022-12-19T01:54:17.581Z,80.18
2022-12-19T01:56:50.289Z,80.15
2022-12-19T01:59:22.506Z,80.89
2022-12-19T02:01:55.598Z,81.54
2022-12-19T02:04:26.296Z,81.91
2022-12-19T02:07:14.395Z,81.52
2022-12-19T02:09:56.644Z,81.75
2022-12-19T02:12:28.458Z,81.25
2022-12-19T02:15:02.804Z,81.05
2022-12-19T02:17:33.695Z,81.79
2022-12-19T02:20:33.934Z,82.26
2022-12-19T02:23:17.075Z,81.22
2022-12-19T02:25:56.765Z,80.66
2022-12-19T02:28:43.216Z,80.93
2022-12-19T02:31:17.846Z,81.49
2022-12-19T02:34:10.468Z,81.04
2022-12-19T02:36:48.906Z,81.19
2022-12-19T02:39:26.617Z,82.28
2022-12-19T02:41:58.225Z,82.25
2022-12-19T02:44:41.257Z,81.79
2022-12-19T02:47:10.049Z,81.67
2022-12-19T02:49:39.230Z,81.23
2022-12-19T02:52:10.926Z,81.20
2022-12-19T02:54:45.213Z,80.75
2022-12-19T02:57:20.247Z,80.70
2022-12-19T02:59:58.598Z,80.39
2022-12-19T03:02:47.500Z,80.35
2022-12-19T03:05:34.183Z,80.08
2022-12-19T03:08:21.673Z,80.19
2022-12-19T03:11:01.416Z,80.39
2022-12-19T03:13:34.322Z,80.25
2022-12-19T03:16:04.569Z,80.27
2022-12-19T03:18:33.591Z,80.71
2022-12-19T03:21:11.267Z,81.12
2022-12-19T03:23:40.111Z,80.88
2022-12-19T03:26:12.418Z,80.80
2022-12-19T03:28:51.544Z,80.67
2022-12-19T03:31:23.840Z,80.76
2022-12-19T03:33:56.730Z,80.78
2022-12-19T03:36:30.666Z,81.16
2022-12-19T03:39:01.933Z,81.38
2022-12-19T03:41:31.551Z,81.07
2022-12-19T03:43:59.440Z,81.00
2022-12-19T03:46:27.958Z,80.45
2022-12-19T03:48:56.060Z,80.87
2022-12-19T03:51:45.566Z,80.93
2022-12-19T03:54:27.076Z,80.86
2022-12-19T03:57:08.526Z,80.15
2022-12-19T03:59:52.676Z,80.23
2022-12-19T04:02:22.607Z,80.83
2022-12-19T04:05:02.522Z,80.89
2022-12-19T04:07:31.448Z,80.50
2022-12-19T04:09:59.393Z,79.99
2022-12-19T04:12:34.261Z,80.99
2022-12-19T04:15:02.216Z,82.75
2022-12-19T04:17:49.358Z,83.69
2022-12-19T04:20:20.984Z,82.38
2022-12-19T04:22:54.815Z,82.31
2022-12-19T04:25:29.633Z,82.10
2022-12-19T04:28:03.411Z,81.73
2022-12-19T04:30:36.607Z,81.56
2022-12-19T04:33:05.032Z,81.04
2022-12-19T04:35:33.134Z,80.89
2022-12-19T04:38:01.126Z,80.79
2022-12-19T04:40:29.274Z,80.86
2022-12-19T04:42:56.839Z,81.65
2022-12-19T04:45:24.879Z,82.13
2022-12-19T04:47:53.066Z,82.38
2022-12-19T04:50:20.890Z,82.42
2022-12-19T04:52:49.331Z,81.95
2022-12-19T04:55:18.972Z,81.09
2022-12-19T04:57:46.930Z,80.67
2022-12-19T05:00:15.066Z,81.55
2022-12-19T05:02:42.842Z,82.31
2022-12-19T05:05:10.544Z,82.40
2022-12-19T05:07:38.436Z,82.54
2022-12-19T05:10:07.623Z,83.69
2022-12-19T05:12:35.586Z,83.61
2022-12-19T05:15:03.480Z,82.77
2022-12-19T05:17:31.382Z,82.05
2022-12-19T05:19:59.069Z,81.41
2022-12-19T05:22:27.334Z,80.43
2022-12-19T05:24:54.852Z,79.53
2022-12-19T05:27:23.087Z,78.96
2022-12-19T05:29:51.120Z,79.66
2022-12-19T05:32:18.800Z,80.18
2022-12-19T05:34:46.680Z,80.11
2022-12-19T05:37:14.319Z,80.68
2022-12-19T05:39:42.065Z,81.76
2022-12-19T05:42:12.474Z,80.58
2022-12-19T05:44:40.525Z,80.98
2022-12-19T05:47:08.299Z,80.56
2022-12-19T05:49:36.043Z,79.82
2022-12-19T05:52:04.318Z,79.99
2022-12-19T05:54:32.296Z,80.06
2022-12-19T05:57:00.016Z,80.00
2022-12-19T05:59:28.605Z,79.48
2022-12-19T06:01:56.800Z,80.07
2022-12-19T06:04:24.896Z,80.09
2022-12-19T06:06:52.574Z,79.90
2022-12-19T06:09:20.645Z,80.57
2022-12-19T06:11:48.717Z,81.63
2022-12-19T06:14:16.865Z,81.15
2022-12-19T06:16:44.940Z,80.32
2022-12-19T06:19:12.575Z,80.19
2022-12-19T06:21:47.919Z,80.46
2022-12-19T06:24:16.316Z,80.44
2022-12-19T06:26:44.673Z,80.71
2022-12-19T06:29:12.644Z,80.53
2022-12-19T06:31:40.290Z,80.53
2022-12-19T06:34:10.521Z,80.91
2022-12-19T06:36:38.689Z,80.37
2022-12-19T06:39:06.508Z,80.51
2022-12-19T06:41:34.099Z,80.24
2022-12-19T06:44:03.946Z,80.51
2022-12-19T06:46:32.942Z,80.52
2022-12-19T06:49:01.081Z,80.40
2022-12-19T06:51:29.134Z,80.66
2022-12-19T06:53:57.488Z,80.40
2022-12-19T06:56:25.594Z,79.86
2022-12-19T06:58:53.381Z,79.79
2022-12-19T07:01:23.961Z,80.67
2022-12-19T07:03:52.310Z,81.15
2022-12-19T07:06:20.860Z,80.85
2022-12-19T07:08:48.691Z,80.91
2022-12-19T07:11:16.509Z,80.74
2022-12-19T07:13:45.438Z,80.50
2022-12-19T07:16:14.839Z,81.09
2022-12-19T07:18:44.342Z,81.92
2022-12-19T07:21:13.442Z,81.19
2022-12-19T07:23:41.453Z,82.01
2022-12-19T07:26:09.371Z,82.83
2022-12-19T07:28:37.880Z,82.07
2022-12-19T07:31:05.809Z,82.54
2022-12-19T07:33:33.631Z,83.07
2022-12-19T07:36:01.823Z,81.73
2022-12-19T07:38:29.648Z,80.98
2022-12-19T07:41:01.072Z,81.26
2022-12-19T07:43:28.904Z,82.12
2022-12-19T07:45:56.904Z,81.76
2022-12-19T07:48:25.126Z,82.87
2022-12-19T07:50:52.672Z,83.07
2022-12-19T07:53:20.490Z,84.13
2022-12-19T07:55:52.547Z,84.08
2022-12-19T07:58:20.219Z,83.30
2022-12-19T08:00:56.001Z,82.19
2022-12-19T08:03:24.617Z,81.28
2022-12-19T08:05:52.750Z,80.98
2022-12-19T08:08:20.627Z,80.39
2022-12-19T08:10:48.649Z,80.08
2022-12-19T08:13:16.508Z,79.81
2022-12-19T08:15:44.431Z,79.92
2022-12-19T08:18:12.624Z,80.59
2022-12-19T08:20:43.502Z,80.72
2022-12-19T08:23:11.663Z,80.10
2022-12-19T08:25:39.292Z,79.72
2022-12-19T08:28:07.150Z,79.49
2022-12-19T08:30:35.196Z,79.61
2022-12-19T08:33:03.474Z,79.81
2022-12-19T08:35:31.534Z,80.47
2022-12-19T08:37:59.376Z,82.19
2022-12-19T08:40:27.019Z,81.93
2022-12-19T08:42:55.650Z,82.99
2022-12-19T08:45:23.375Z,83.91
2022-12-19T08:47:51.199Z,84.04
2022-12-19T08:50:19.063Z,84.04
2022-12-19T08:52:47.212Z,83.39
2022-12-19T08:55:15.604Z,82.65
2022-12-19T08:57:47.591Z,82.03
2022-12-19T09:00:16.080Z,81.36
2022-12-19T09:02:44.842Z,80.93
2022-12-19T09:06:02.217Z,80.54
2022-12-19T09:08:00.870Z,80.46
2022-12-19T09:10:28.856Z,80.37
2022-12-19T09:12:57.948Z,80.35
2022-12-19T09:15:25.981Z,80.37
2022-12-19T09:17:53.913Z,80.25
2022-12-19T09:20:23.559Z,80.17
2022-12-19T09:22:51.606Z,80.10
2022-12-19T09:25:19.196Z,79.72
2022-12-19T09:28:25.283Z,79.57
2022-12-19T09:30:35.524Z,79.78
2022-12-19T09:33:03.194Z,79.65
2022-12-19T09:35:31.149Z,79.79
2022-12-19T09:38:00.506Z,80.11
2022-12-19T12:46:38.305Z,63.42
2022-12-19T12:49:23.078Z,63.67
2022-12-19T12:51:51.961Z,65.28
2022-12-19T12:54:20.735Z,65.38
2022-12-19T12:56:48.823Z,66.11
2022-12-19T12:59:21.409Z,66.05
2022-12-19T13:01:52.151Z,66.34
2022-12-19T13:04:26.195Z,66.70
2022-12-19T13:06:53.715Z,67.29
2022-12-19T13:09:27.246Z,67.57
2022-12-19T13:12:02.548Z,68.08
2022-12-19T13:14:36.558Z,68.31
2022-12-19T13:17:06.200Z,68.32
2022-12-19T13:19:38.329Z,67.94
2022-12-19T13:22:08.824Z,67.85
2022-12-19T13:24:48.529Z,67.22
2022-12-19T13:27:19.035Z,66.57
2022-12-19T13:30:02.206Z,66.39
2022-12-19T13:32:53.935Z,65.58
2022-12-19T13:36:38.611Z,65.08
2022-12-19T13:39:55.642Z,64.34
2022-12-19T13:41:05.860Z,64.12
2022-12-19T13:43:39.203Z,63.41
2022-12-19T13:46:18.837Z,64.09
2022-12-19T13:48:52.343Z,64.97
2022-12-19T13:51:20.067Z,65.93
2022-12-19T13:53:59.034Z,66.25
2022-12-19T13:56:30.364Z,66.44
2022-12-19T13:58:59.315Z,66.28
2022-12-19T14:01:28.036Z,66.79
2022-12-19T14:04:07.659Z,67.57
2022-12-19T14:06:47.536Z,68.19
2022-12-19T14:11:28.167Z,69.47
2022-12-19T14:13:40.421Z,70.37
2022-12-19T14:15:32.452Z,71.26
2022-12-19T14:18:44.819Z,72.01
2022-12-19T14:22:11.645Z,72.84
2022-12-19T14:24:21.939Z,73.69
2022-12-19T14:28:20.708Z,74.18
2022-12-19T14:30:29.692Z,74.14
2022-12-19T14:33:41.969Z,73.78
2022-12-19T14:36:10.213Z,74.12
2022-12-19T14:39:23.376Z,75.05
2022-12-19T14:41:29.521Z,76.01
2022-12-19T14:52:34.729Z,75.94
2022-12-19T14:54:03.816Z,75.62
2022-12-19T14:54:07.203Z,76.76
2022-12-19T14:54:21.298Z,77.46
2022-12-19T14:56:15.944Z,78.34
2022-12-19T14:58:52.848Z,79.30
2022-12-19T15:01:24.176Z,79.14
2022-12-19T15:04:47.833Z,79.50
2022-12-19T15:07:09.670Z,78.78
2022-12-19T15:11:06.501Z,78.36
2022-12-19T15:14:04.191Z,78.07
2022-12-19T15:15:23.048Z,78.58
2022-12-19T15:17:54.461Z,79.30
2022-12-19T15:20:22.419Z,79.94
2022-12-19T15:22:50.095Z,80.56
2022-12-19T15:25:44.052Z,81.42
2022-12-19T15:28:17.737Z,83.16
2022-12-19T15:30:50.507Z,82.89
2022-12-19T15:33:18.183Z,81.99
2022-12-19T15:35:45.765Z,81.15
2022-12-19T15:38:13.306Z,81.31
2022-12-19T15:40:41.990Z,81.54
2022-12-19T15:43:44.885Z,81.94
2022-12-19T15:46:06.053Z,81.59
2022-12-19T15:48:37.424Z,80.56
2022-12-19T15:51:05.528Z,80.64
2022-12-19T15:53:40.804Z,80.53
2022-12-19T15:56:26.897Z,80.67
2022-12-19T15:58:57.353Z,80.82
2022-12-19T16:01:26.113Z,81.40
2022-12-19T16:03:54.350Z,81.85
2022-12-19T16:06:22.365Z,82.96
2022-12-19T16:08:49.974Z,83.74
2022-12-19T16:11:23.586Z,83.95
2022-12-19T16:13:54.159Z,84.33
2022-12-19T16:16:23.407Z,84.31
2022-12-19T16:18:51.239Z,83.99
2022-12-19T16:21:23.648Z,83.40
2022-12-19T16:23:54.979Z,83.51
2022-12-19T16:26:34.833Z,83.28
2022-12-19T16:29:03.150Z,83.45
2022-12-19T16:31:30.824Z,83.13
2022-12-19T16:33:58.478Z,83.05
2022-12-19T16:36:26.086Z,83.25
2022-12-19T16:38:53.648Z,83.07
2022-12-19T16:41:24.469Z,82.97
2022-12-19T16:43:52.596Z,82.90
2022-12-19T16:46:22.997Z,82.53
2022-12-19T16:48:50.594Z,82.40
2022-12-19T16:51:21.562Z,82.30
2022-12-19T16:53:49.840Z,82.40
2022-12-19T16:56:43.636Z,82.92
2022-12-19T16:59:22.635Z,82.78
2022-12-19T17:01:51.320Z,82.48
2022-12-19T17:04:22.764Z,83.05
2022-12-19T17:06:54.237Z,82.55
2022-12-19T17:09:25.337Z,82.36
2022-12-19T17:11:57.281Z,83.01
2022-12-19T17:14:27.232Z,83.14
2022-12-19T17:16:55.949Z,83.38
2022-12-19T17:19:34.445Z,83.78
2022-12-19T17:22:02.176Z,83.55
2022-12-19T17:24:29.755Z,83.74
2022-12-19T17:26:57.311Z,84.15
2022-12-19T17:29:24.922Z,83.88
2022-12-19T17:31:52.619Z,83.81
2022-12-19T17:34:30.782Z,83.34
2022-12-19T17:36:59.281Z,83.67
2022-12-19T17:39:30.310Z,83.71
2022-12-19T17:42:01.478Z,83.91
2022-12-19T17:44:29.056Z,84.28
2022-12-19T17:46:56.639Z,84.62
2022-12-19T17:49:30.298Z,84.86
2022-12-19T17:51:59.713Z,85.27
2022-12-19T17:54:27.591Z,85.14
2022-12-19T17:56:55.596Z,85.26
2022-12-19T17:59:23.218Z,85.68
2022-12-19T18:01:50.935Z,85.51
2022-12-19T18:04:20.228Z,86.35
2022-12-19T18:06:48.515Z,87.23
2022-12-19T18:09:21.228Z,87.67
2022-12-19T18:11:55.969Z,87.50
2022-12-19T18:14:24.043Z,87.08
2022-12-19T18:16:51.794Z,86.88
2022-12-19T18:19:22.471Z,86.54
2022-12-19T18:21:50.268Z,86.27
2022-12-19T18:24:17.813Z,85.89
2022-12-19T18:26:45.979Z,85.61
2022-12-19T18:29:14.070Z,85.15
2022-12-19T18:31:49.763Z,84.82
2022-12-19T18:34:21.493Z,84.42
2022-12-19T18:36:49.294Z,84.12
2022-12-19T18:39:21.327Z,83.92
2022-12-19T18:41:49.843Z,83.87
2022-12-19T18:44:17.862Z,83.69
2022-12-19T18:46:48.517Z,83.72
2022-12-19T18:49:17.477Z,83.75
2022-12-19T18:51:45.280Z,83.51
2022-12-19T18:54:15.629Z,83.48
2022-12-19T18:56:43.488Z,83.48
2022-12-19T18:59:11.484Z,83.17
2022-12-19T19:01:43.246Z,83.29
2022-12-19T19:04:11.131Z,83.41
2022-12-19T19:06:40.277Z,83.55
2022-12-19T19:09:16.446Z,83.65
2022-12-19T19:11:44.256Z,83.36
2022-12-19T19:14:11.922Z,83.72
2022-12-19T19:16:39.889Z,83.55
2022-12-19T19:19:11.911Z,83.74
2022-12-19T19:21:39.500Z,83.67
2022-12-19T19:24:25.314Z,83.83
2022-12-19T19:26:52.854Z,83.76
2022-12-19T19:29:20.422Z,83.81
2022-12-19T19:31:51.745Z,83.70
2022-12-19T19:34:28.213Z,83.55
2022-12-19T19:36:58.547Z,83.49
2022-12-19T19:39:26.852Z,83.39
2022-12-19T19:41:55.012Z,83.41
2022-12-19T19:44:24.144Z,83.21
2022-12-19T19:46:51.797Z,83.21
2022-12-19T19:49:23.047Z,83.36
2022-12-19T19:52:00.289Z,83.35
2022-12-19T19:54:31.335Z,83.25
2022-12-19T19:56:58.879Z,83.12
2022-12-19T19:59:29.972Z,83.15
2022-12-19T20:01:57.642Z,83.29
2022-12-19T20:04:25.719Z,83.37
2022-12-19T20:06:53.323Z,83.33
2022-12-19T20:09:20.924Z,83.19
2022-12-19T20:11:48.484Z,83.30
2022-12-19T20:14:16.076Z,83.33
2022-12-19T20:16:43.739Z,83.04
2022-12-19T20:19:11.408Z,83.11
2022-12-19T20:21:38.978Z,83.12
2022-12-19T20:24:06.690Z,83.35
2022-12-19T20:26:34.911Z,83.38
2022-12-19T20:29:03.263Z,83.57
2022-12-19T20:31:30.905Z,84.11
2022-12-19T20:33:58.770Z,83.99
2022-12-19T20:36:26.345Z,84.21
2022-12-19T20:38:53.913Z,83.99
2022-12-19T20:41:21.586Z,83.82
2022-12-19T20:43:49.193Z,83.76
2022-12-19T20:46:19.377Z,83.84
2022-12-19T20:48:48.036Z,83.80
2022-12-19T20:51:17.822Z,83.69
2022-12-19T20:53:45.919Z,83.54
2022-12-19T20:56:18.704Z,83.55
2022-12-19T20:58:46.787Z,83.16
2022-12-19T21:01:22.592Z,82.87
2022-12-19T21:03:51.003Z,82.93
2022-12-19T21:06:20.443Z,83.17
2022-12-19T21:08:48.423Z,83.36
2022-12-19T21:11:16.231Z,83.42
2022-12-19T21:13:44.737Z,83.56
2022-12-19T21:16:15.062Z,83.59
2022-12-19T21:18:44.585Z,83.50
2022-12-19T21:21:16.362Z,83.82
2022-12-19T21:23:44.275Z,83.51
2022-12-19T21:26:11.899Z,83.59
2022-12-19T21:28:39.522Z,83.61
2022-12-19T21:31:20.472Z,83.56
2022-12-19T21:33:49.085Z,83.48
2022-12-19T21:36:20.553Z,83.39
2022-12-19T21:38:50.595Z,83.38
2022-12-19T21:41:18.746Z,83.21
2022-12-19T21:43:48.184Z,83.24
2022-12-19T21:46:16.689Z,82.97
2022-12-19T21:48:47.377Z,82.59
2022-12-19T21:51:15.690Z,82.64
2022-12-19T21:53:43.289Z,82.47
2022-12-19T21:56:16.513Z,82.36
2022-12-19T21:58:44.101Z,82.42
2022-12-19T22:01:13.386Z,82.33
2022-12-19T22:03:41.378Z,82.10
2022-12-19T22:06:18.785Z,82.11
2022-12-19T22:08:49.331Z,82.08
2022-12-19T22:11:20.416Z,82.10
2022-12-19T22:13:49.180Z,82.15
2022-12-19T22:16:17.578Z,82.16
2022-12-19T22:18:46.171Z,82.26
2022-12-19T22:21:15.427Z,82.19
2022-12-19T22:23:43.153Z,81.88
2022-12-19T22:26:16.293Z,81.94
2022-12-19T22:28:46.505Z,82.12
2022-12-19T22:31:21.593Z,81.73
2022-12-19T22:33:51.813Z,81.78
2022-12-19T22:36:27.593Z,81.59
2022-12-19T22:38:57.124Z,81.61
2022-12-19T22:41:24.937Z,81.68
2022-12-19T22:43:53.304Z,81.66
2022-12-19T22:46:23.688Z,81.48
2022-12-19T22:48:51.340Z,81.64
2022-12-19T22:51:20.131Z,81.28
2022-12-19T22:53:47.969Z,81.58
2022-12-19T22:56:21.312Z,81.60
2022-12-19T22:58:50.975Z,81.78
2022-12-19T23:01:24.009Z,81.74
2022-12-19T23:03:54.175Z,81.35
2022-12-19T23:06:23.682Z,81.53
2022-12-19T23:08:51.914Z,81.34
2022-12-19T23:11:24.295Z,81.32
2022-12-19T23:13:52.065Z,81.42
2022-12-19T23:16:19.693Z,81.34
2022-12-19T23:18:47.285Z,81.51
2022-12-19T23:21:17.582Z,81.45
2022-12-19T23:23:47.613Z,81.45
2022-12-19T23:26:18.251Z,81.54
2022-12-19T23:28:52.722Z,81.37
2022-12-19T23:31:20.442Z,81.22
2022-12-19T23:33:48.096Z,81.42
2022-12-19T23:36:16.418Z,81.49
2022-12-19T23:38:44.465Z,81.53
2022-12-19T23:41:14.730Z,81.19
2022-12-19T23:43:42.662Z,81.33
2022-12-19T23:46:16.187Z,81.21
2022-12-19T23:48:44.393Z,81.36
2022-12-19T23:51:17.452Z,81.35
2022-12-19T23:53:45.830Z,81.41
2022-12-19T23:56:22.167Z,81.51
2022-12-19T23:58:50.279Z,81.52
